sensor_id;sensor_type;location;lat;lon;timestamp;temperature;humidity
9640;DHT22;51745;50.872;4.732;2023-04-30T00:02:46;7.90;99.90
9640;DHT22;51745;50.872;4.732;2023-04-30T00:05:34;7.90;99.90
9640;DHT22;51745;50.872;4.732;2023-04-30T00:08:23;7.80;99.90
9640;DHT22;51745;50.872;4.732;2023-04-30T00:11:11;7.70;99.90
9640;DHT22;51745;50.872;4.732;2023-04-30T00:13:59;8.10;99.90
9640;DHT22;51745;50.872;4.732;2023-04-30T00:16:47;7.70;99.90
9640;DHT22;51745;50.872;4.732;2023-04-30T00:19:36;7.70;99.90
9640;DHT22;51745;50.872;4.732;2023-04-30T00:22:23;7.60;99.90
9640;DHT22;51745;50.872;4.732;2023-04-30T00:25:13;7.50;99.90
9640;DHT22;51745;50.872;4.732;2023-04-30T00:28:05;7.40;99.90
9640;DHT22;51745;50.872;4.732;2023-04-30T00:30:53;7.40;99.90
9640;DHT22;51745;50.872;4.732;2023-04-30T00:33:41;7.30;99.90
9640;DHT22;51745;50.872;4.732;2023-04-30T00:36:32;7.30;99.90
9640;DHT22;51745;50.872;4.732;2023-04-30T00:39:20;7.30;99.90
9640;DHT22;51745;50.872;4.732;2023-04-30T00:42:08;7.20;99.90
9640;DHT22;51745;50.872;4.732;2023-04-30T00:44:57;9.10;99.90
9640;DHT22;51745;50.872;4.732;2023-04-30T00:47:45;7.20;99.90
9640;DHT22;51745;50.872;4.732;2023-04-30T00:50:34;7.20;99.90
9640;DHT22;51745;50.872;4.732;2023-04-30T00:53:22;7.10;99.90
9640;DHT22;51745;50.872;4.732;2023-04-30T00:56:10;6.50;99.90
9640;DHT22;51745;50.872;4.732;2023-04-30T00:58:59;7.00;99.90
9640;DHT22;51745;50.872;4.732;2023-04-30T01:01:49;7.00;99.90
9640;DHT22;51745;50.872;4.732;2023-04-30T01:04:37;7.10;99.90
9640;DHT22;51745;50.872;4.732;2023-04-30T01:07:25;6.90;99.90
9640;DHT22;51745;50.872;4.732;2023-04-30T01:10:13;6.80;99.90
9640;DHT22;51745;50.872;4.732;2023-04-30T01:13:08;6.60;99.90
9640;DHT22;51745;50.872;4.732;2023-04-30T01:16:04;6.70;99.90
9640;DHT22;51745;50.872;4.732;2023-04-30T01:18:58;6.70;99.90
9640;DHT22;51745;50.872;4.732;2023-04-30T01:21:46;6.70;99.90
9640;DHT22;51745;50.872;4.732;2023-04-30T01:27:59;6.60;99.90
9640;DHT22;51745;50.872;4.732;2023-04-30T01:30:48;6.60;99.90
9640;DHT22;51745;50.872;4.732;2023-04-30T01:33:36;6.50;99.90
9640;DHT22;51745;50.872;4.732;2023-04-30T01:36:43;6.50;99.90
9640;DHT22;51745;50.872;4.732;2023-04-30T01:39:37;6.50;99.90
9640;DHT22;51745;50.872;4.732;2023-04-30T01:42:30;6.50;99.90
9640;DHT22;51745;50.872;4.732;2023-04-30T01:45:25;6.50;99.90
9640;DHT22;51745;50.872;4.732;2023-04-30T01:48:21;4.10;99.90
9640;DHT22;51745;50.872;4.732;2023-04-30T01:51:14;6.60;99.90
9640;DHT22;51745;50.872;4.732;2023-04-30T01:54:05;6.70;99.90
9640;DHT22;51745;50.872;4.732;2023-04-30T01:57:00;6.70;99.90
9640;DHT22;51745;50.872;4.732;2023-04-30T01:59:49;6.70;99.90
9640;DHT22;51745;50.872;4.732;2023-04-30T02:02:40;6.60;99.90
9640;DHT22;51745;50.872;4.732;2023-04-30T02:05:28;6.50;99.90
9640;DHT22;51745;50.872;4.732;2023-04-30T02:08:16;6.40;99.90
9640;DHT22;51745;50.872;4.732;2023-04-30T02:11:04;6.20;99.90
9640;DHT22;51745;50.872;4.732;2023-04-30T02:13:52;6.20;99.90
9640;DHT22;51745;50.872;4.732;2023-04-30T02:16:40;6.10;99.90
9640;DHT22;51745;50.872;4.732;2023-04-30T02:19:30;6.00;99.90
9640;DHT22;51745;50.872;4.732;2023-04-30T02:22:18;6.10;99.90
9640;DHT22;51745;50.872;4.732;2023-04-30T02:25:07;7.40;99.90
9640;DHT22;51745;50.872;4.732;2023-04-30T02:27:55;6.00;99.90
9640;DHT22;51745;50.872;4.732;2023-04-30T02:30:42;6.10;99.90
9640;DHT22;51745;50.872;4.732;2023-04-30T02:33:33;6.30;99.90
9640;DHT22;51745;50.872;4.732;2023-04-30T02:36:23;6.20;99.90
9640;DHT22;51745;50.872;4.732;2023-04-30T02:39:10;5.80;99.90
9640;DHT22;51745;50.872;4.732;2023-04-30T02:42:00;6.30;99.90
9640;DHT22;51745;50.872;4.732;2023-04-30T02:44:49;6.30;99.90
9640;DHT22;51745;50.872;4.732;2023-04-30T02:47:39;6.30;99.90
9640;DHT22;51745;50.872;4.732;2023-04-30T02:50:27;6.30;99.90
9640;DHT22;51745;50.872;4.732;2023-04-30T02:53:16;6.20;99.90
9640;DHT22;51745;50.872;4.732;2023-04-30T02:56:06;6.50;99.90
9640;DHT22;51745;50.872;4.732;2023-04-30T02:58:56;6.00;99.90
9640;DHT22;51745;50.872;4.732;2023-04-30T03:01:44;5.90;99.90
9640;DHT22;51745;50.872;4.732;2023-04-30T03:04:32;5.80;99.90
9640;DHT22;51745;50.872;4.732;2023-04-30T03:07:22;5.70;99.90
9640;DHT22;51745;50.872;4.732;2023-04-30T03:10:12;5.60;99.90
9640;DHT22;51745;50.872;4.732;2023-04-30T03:13:00;5.70;99.90
9640;DHT22;51745;50.872;4.732;2023-04-30T03:15:48;5.50;99.90
9640;DHT22;51745;50.872;4.732;2023-04-30T03:18:36;5.40;99.90
9640;DHT22;51745;50.872;4.732;2023-04-30T03:21:23;4.60;99.90
9640;DHT22;51745;50.872;4.732;2023-04-30T03:24:11;5.40;99.90
9640;DHT22;51745;50.872;4.732;2023-04-30T03:27:01;6.80;99.90
9640;DHT22;51745;50.872;4.732;2023-04-30T03:29:49;5.30;99.90
9640;DHT22;51745;50.872;4.732;2023-04-30T03:32:39;5.30;99.90
9640;DHT22;51745;50.872;4.732;2023-04-30T03:35:26;6.00;99.90
9640;DHT22;51745;50.872;4.732;2023-04-30T03:38:15;5.20;99.90
9640;DHT22;51745;50.872;4.732;2023-04-30T03:41:02;5.10;99.90
9640;DHT22;51745;50.872;4.732;2023-04-30T03:43:55;4.90;99.90
9640;DHT22;51745;50.872;4.732;2023-04-30T03:46:42;5.10;99.90
9640;DHT22;51745;50.872;4.732;2023-04-30T03:49:30;5.10;99.90
9640;DHT22;51745;50.872;4.732;2023-04-30T03:52:18;5.10;99.90
9640;DHT22;51745;50.872;4.732;2023-04-30T03:55:07;5.20;99.90
9640;DHT22;51745;50.872;4.732;2023-04-30T03:57:55;5.10;99.90
9640;DHT22;51745;50.872;4.732;2023-04-30T04:00:45;5.10;99.90
9640;DHT22;51745;50.872;4.732;2023-04-30T04:03:33;5.10;99.90
9640;DHT22;51745;50.872;4.732;2023-04-30T04:06:21;5.00;99.90
9640;DHT22;51745;50.872;4.732;2023-04-30T04:09:09;5.00;99.90
9640;DHT22;51745;50.872;4.732;2023-04-30T04:12:00;4.90;99.90
9640;DHT22;51745;50.872;4.732;2023-04-30T04:14:48;2.20;99.90
9640;DHT22;51745;50.872;4.732;2023-04-30T04:17:38;5.00;99.90
9640;DHT22;51745;50.872;4.732;2023-04-30T04:20:25;4.90;99.90
9640;DHT22;51745;50.872;4.732;2023-04-30T04:23:15;4.90;99.90
9640;DHT22;51745;50.872;4.732;2023-04-30T04:26:02;4.80;99.90
9640;DHT22;51745;50.872;4.732;2023-04-30T04:28:50;4.90;99.90
9640;DHT22;51745;50.872;4.732;2023-04-30T04:31:38;4.90;99.90
9640;DHT22;51745;50.872;4.732;2023-04-30T04:34:30;4.90;99.90
9640;DHT22;51745;50.872;4.732;2023-04-30T04:37:21;4.90;99.90
9640;DHT22;51745;50.872;4.732;2023-04-30T04:40:08;5.00;99.90
9640;DHT22;51745;50.872;4.732;2023-04-30T04:42:58;5.00;99.90
9640;DHT22;51745;50.872;4.732;2023-04-30T04:45:45;5.00;99.90
9640;DHT22;51745;50.872;4.732;2023-04-30T04:48:36;5.10;99.90
9640;DHT22;51745;50.872;4.732;2023-04-30T04:51:25;5.10;99.90
9640;DHT22;51745;50.872;4.732;2023-04-30T04:54:13;5.10;99.90
9640;DHT22;51745;50.872;4.732;2023-04-30T04:57:01;5.00;99.90
9640;DHT22;51745;50.872;4.732;2023-04-30T04:59:49;5.20;99.90
9640;DHT22;51745;50.872;4.732;2023-04-30T05:02:39;5.20;99.90
9640;DHT22;51745;50.872;4.732;2023-04-30T05:05:27;5.20;99.90
9640;DHT22;51745;50.872;4.732;2023-04-30T05:08:17;5.30;99.90
9640;DHT22;51745;50.872;4.732;2023-04-30T05:11:05;5.40;99.90
9640;DHT22;51745;50.872;4.732;2023-04-30T05:13:53;5.40;99.90
9640;DHT22;51745;50.872;4.732;2023-04-30T05:16:43;5.60;99.90
9640;DHT22;51745;50.872;4.732;2023-04-30T05:19:31;5.60;99.90
9640;DHT22;51745;50.872;4.732;2023-04-30T05:22:20;5.70;99.90
9640;DHT22;51745;50.872;4.732;2023-04-30T05:25:10;5.70;99.90
9640;DHT22;51745;50.872;4.732;2023-04-30T05:27:58;6.00;99.90
9640;DHT22;51745;50.872;4.732;2023-04-30T05:30:46;5.90;99.90
9640;DHT22;51745;50.872;4.732;2023-04-30T05:33:33;6.00;99.90
9640;DHT22;51745;50.872;4.732;2023-04-30T05:36:25;6.10;99.90
9640;DHT22;51745;50.872;4.732;2023-04-30T05:39:13;6.10;99.90
9640;DHT22;51745;50.872;4.732;2023-04-30T05:42:03;6.20;99.90
9640;DHT22;51745;50.872;4.732;2023-04-30T05:44:51;6.30;99.90
9640;DHT22;51745;50.872;4.732;2023-04-30T05:47:38;6.40;99.90
9640;DHT22;51745;50.872;4.732;2023-04-30T05:50:26;7.70;99.90
9640;DHT22;51745;50.872;4.732;2023-04-30T05:53:14;6.50;99.90
9640;DHT22;51745;50.872;4.732;2023-04-30T05:56:05;6.70;99.90
9640;DHT22;51745;50.872;4.732;2023-04-30T05:58:56;6.80;99.90
9640;DHT22;51745;50.872;4.732;2023-04-30T06:01:45;7.10;99.90
9640;DHT22;51745;50.872;4.732;2023-04-30T06:04:35;7.40;99.90
9640;DHT22;51745;50.872;4.732;2023-04-30T06:07:26;7.60;99.90
9640;DHT22;51745;50.872;4.732;2023-04-30T06:10:16;7.90;99.90
9640;DHT22;51745;50.872;4.732;2023-04-30T06:13:05;8.20;99.90
9640;DHT22;51745;50.872;4.732;2023-04-30T06:15:59;8.50;99.90
9640;DHT22;51745;50.872;4.732;2023-04-30T06:18:47;8.90;99.90
9640;DHT22;51745;50.872;4.732;2023-04-30T06:21:37;8.70;99.90
9640;DHT22;51745;50.872;4.732;2023-04-30T06:24:26;8.70;99.90
9640;DHT22;51745;50.872;4.732;2023-04-30T06:27:15;8.60;99.90
9640;DHT22;51745;50.872;4.732;2023-04-30T06:30:04;8.70;99.90
9640;DHT22;51745;50.872;4.732;2023-04-30T06:32:55;8.60;99.90
9640;DHT22;51745;50.872;4.732;2023-04-30T06:35:45;9.40;99.90
9640;DHT22;51745;50.872;4.732;2023-04-30T06:38:36;8.70;99.90
9640;DHT22;51745;50.872;4.732;2023-04-30T06:41:26;8.80;99.90
9640;DHT22;51745;50.872;4.732;2023-04-30T06:44:16;8.90;99.90
9640;DHT22;51745;50.872;4.732;2023-04-30T06:47:04;9.00;99.90
9640;DHT22;51745;50.872;4.732;2023-04-30T06:49:57;9.00;99.90
9640;DHT22;51745;50.872;4.732;2023-04-30T06:52:45;9.30;99.90
9640;DHT22;51745;50.872;4.732;2023-04-30T06:55:33;10.50;99.90
9640;DHT22;51745;50.872;4.732;2023-04-30T06:58:22;10.00;99.90
9640;DHT22;51745;50.872;4.732;2023-04-30T07:01:12;10.10;99.90
9640;DHT22;51745;50.872;4.732;2023-04-30T07:04:01;10.00;99.90
9640;DHT22;51745;50.872;4.732;2023-04-30T07:06:50;10.00;99.90
9640;DHT22;51745;50.872;4.732;2023-04-30T07:09:39;10.10;99.90
9640;DHT22;51745;50.872;4.732;2023-04-30T07:12:27;10.00;99.90
9640;DHT22;51745;50.872;4.732;2023-04-30T07:15:15;10.10;99.90
9640;DHT22;51745;50.872;4.732;2023-04-30T07:18:03;10.20;99.90
9640;DHT22;51745;50.872;4.732;2023-04-30T07:20:51;10.30;99.90
9640;DHT22;51745;50.872;4.732;2023-04-30T07:23:40;10.30;99.90
9640;DHT22;51745;50.872;4.732;2023-04-30T07:26:32;11.10;99.90
9640;DHT22;51745;50.872;4.732;2023-04-30T07:29:19;10.90;99.90
9640;DHT22;51745;50.872;4.732;2023-04-30T07:32:07;10.60;99.90
9640;DHT22;51745;50.872;4.732;2023-04-30T07:34:56;10.50;99.90
9640;DHT22;51745;50.872;4.732;2023-04-30T07:37:44;11.10;99.90
9640;DHT22;51745;50.872;4.732;2023-04-30T07:40:34;10.80;99.90
9640;DHT22;51745;50.872;4.732;2023-04-30T07:43:24;11.00;99.90
9640;DHT22;51745;50.872;4.732;2023-04-30T07:46:12;11.00;99.90
9640;DHT22;51745;50.872;4.732;2023-04-30T07:49:02;11.10;99.90
9640;DHT22;51745;50.872;4.732;2023-04-30T07:51:51;11.20;99.90
9640;DHT22;51745;50.872;4.732;2023-04-30T07:54:38;11.30;99.90
9640;DHT22;51745;50.872;4.732;2023-04-30T07:57:28;11.40;99.90
9640;DHT22;51745;50.872;4.732;2023-04-30T08:00:17;11.50;99.90
9640;DHT22;51745;50.872;4.732;2023-04-30T08:03:05;14.20;99.90
9640;DHT22;51745;50.872;4.732;2023-04-30T08:05:53;11.80;99.90
9640;DHT22;51745;50.872;4.732;2023-04-30T08:08:41;12.00;99.90
9640;DHT22;51745;50.872;4.732;2023-04-30T08:11:29;14.60;99.90
9640;DHT22;51745;50.872;4.732;2023-04-30T08:14:19;12.60;99.90
9640;DHT22;51745;50.872;4.732;2023-04-30T08:17:07;12.70;99.90
9640;DHT22;51745;50.872;4.732;2023-04-30T08:19:56;13.00;99.90
9640;DHT22;51745;50.872;4.732;2023-04-30T08:22:46;13.10;99.90
9640;DHT22;51745;50.872;4.732;2023-04-30T08:25:34;13.10;99.90
9640;DHT22;51745;50.872;4.732;2023-04-30T08:28:24;13.20;99.90
9640;DHT22;51745;50.872;4.732;2023-04-30T08:31:14;13.30;99.90
9640;DHT22;51745;50.872;4.732;2023-04-30T08:34:02;13.20;99.90
9640;DHT22;51745;50.872;4.732;2023-04-30T08:36:51;13.40;99.90
9640;DHT22;51745;50.872;4.732;2023-04-30T08:39:39;13.50;99.90
9640;DHT22;51745;50.872;4.732;2023-04-30T08:42:29;13.40;99.90
9640;DHT22;51745;50.872;4.732;2023-04-30T08:45:17;13.50;99.90
9640;DHT22;51745;50.872;4.732;2023-04-30T08:48:08;13.70;99.90
9640;DHT22;51745;50.872;4.732;2023-04-30T08:50:59;13.90;99.90
9640;DHT22;51745;50.872;4.732;2023-04-30T08:53:48;13.90;99.90
9640;DHT22;51745;50.872;4.732;2023-04-30T08:56:39;13.90;99.90
9640;DHT22;51745;50.872;4.732;2023-04-30T08:59:27;14.00;99.90
9640;DHT22;51745;50.872;4.732;2023-04-30T09:02:15;14.30;99.90
9640;DHT22;51745;50.872;4.732;2023-04-30T09:05:04;14.20;99.90
9640;DHT22;51745;50.872;4.732;2023-04-30T09:07:55;14.20;99.90
9640;DHT22;51745;50.872;4.732;2023-04-30T09:10:49;14.30;99.90
9640;DHT22;51745;50.872;4.732;2023-04-30T09:13:39;14.50;99.90
9640;DHT22;51745;50.872;4.732;2023-04-30T09:16:43;14.60;99.90
9640;DHT22;51745;50.872;4.732;2023-04-30T09:19:31;14.60;99.90
9640;DHT22;51745;50.872;4.732;2023-04-30T09:22:22;14.70;99.90
9640;DHT22;51745;50.872;4.732;2023-04-30T09:25:10;14.90;99.90
9640;DHT22;51745;50.872;4.732;2023-04-30T09:28:05;14.90;99.90
9640;DHT22;51745;50.872;4.732;2023-04-30T09:30:55;15.00;99.90
9640;DHT22;51745;50.872;4.732;2023-04-30T09:33:44;16.70;99.90
9640;DHT22;51745;50.872;4.732;2023-04-30T09:36:33;15.10;99.90
9640;DHT22;51745;50.872;4.732;2023-04-30T09:39:22;15.20;99.90
9640;DHT22;51745;50.872;4.732;2023-04-30T09:42:10;13.90;99.90
9640;DHT22;51745;50.872;4.732;2023-04-30T09:44:58;15.30;99.90
9640;DHT22;51745;50.872;4.732;2023-04-30T09:47:46;15.30;99.90
9640;DHT22;51745;50.872;4.732;2023-04-30T09:50:36;15.20;99.90
9640;DHT22;51745;50.872;4.732;2023-04-30T09:53:26;15.50;99.90
9640;DHT22;51745;50.872;4.732;2023-04-30T09:56:18;15.50;99.90
9640;DHT22;51745;50.872;4.732;2023-04-30T09:59:07;15.80;99.90
9640;DHT22;51745;50.872;4.732;2023-04-30T10:01:56;15.70;99.90
9640;DHT22;51745;50.872;4.732;2023-04-30T10:04:47;15.90;99.90
9640;DHT22;51745;50.872;4.732;2023-04-30T10:07:36;16.00;99.90
9640;DHT22;51745;50.872;4.732;2023-04-30T10:10:28;13.70;99.90
9640;DHT22;51745;50.872;4.732;2023-04-30T10:13:21;16.20;99.90
9640;DHT22;51745;50.872;4.732;2023-04-30T10:16:11;16.00;99.90
9640;DHT22;51745;50.872;4.732;2023-04-30T10:19:06;16.10;99.90
9640;DHT22;51745;50.872;4.732;2023-04-30T10:21:55;16.10;99.90
9640;DHT22;51745;50.872;4.732;2023-04-30T10:24:43;16.10;99.90
9640;DHT22;51745;50.872;4.732;2023-04-30T10:27:36;16.10;99.90
9640;DHT22;51745;50.872;4.732;2023-04-30T10:30:27;16.50;99.90
9640;DHT22;51745;50.872;4.732;2023-04-30T10:33:18;16.50;99.90
9640;DHT22;51745;50.872;4.732;2023-04-30T10:36:11;16.90;99.90
9640;DHT22;51745;50.872;4.732;2023-04-30T10:39:03;16.80;99.90
9640;DHT22;51745;50.872;4.732;2023-04-30T10:41:52;17.40;99.90
9640;DHT22;51745;50.872;4.732;2023-04-30T10:44:46;17.50;99.90
9640;DHT22;51745;50.872;4.732;2023-04-30T10:47:36;17.50;99.90
9640;DHT22;51745;50.872;4.732;2023-04-30T10:50:25;17.50;99.90
9640;DHT22;51745;50.872;4.732;2023-04-30T10:53:13;17.30;99.90
9640;DHT22;51745;50.872;4.732;2023-04-30T10:56:05;17.20;99.90
9640;DHT22;51745;50.872;4.732;2023-04-30T10:58:57;17.00;99.90
9640;DHT22;51745;50.872;4.732;2023-04-30T11:01:55;17.30;99.90
9640;DHT22;51745;50.872;4.732;2023-04-30T11:07:56;17.90;99.90
9640;DHT22;51745;50.872;4.732;2023-04-30T11:10:56;18.10;99.90
9640;DHT22;51745;50.872;4.732;2023-04-30T11:13:44;17.70;99.90
9640;DHT22;51745;50.872;4.732;2023-04-30T11:16:32;17.20;99.90
9640;DHT22;51745;50.872;4.732;2023-04-30T11:19:23;16.10;99.90
9640;DHT22;51745;50.872;4.732;2023-04-30T11:22:18;17.60;99.90
9640;DHT22;51745;50.872;4.732;2023-04-30T11:25:08;17.70;99.90
9640;DHT22;51745;50.872;4.732;2023-04-30T11:27:55;17.70;99.90
9640;DHT22;51745;50.872;4.732;2023-04-30T11:30:51;17.80;99.90
9640;DHT22;51745;50.872;4.732;2023-04-30T11:33:42;17.80;99.90
9640;DHT22;51745;50.872;4.732;2023-04-30T11:36:30;17.60;99.90
9640;DHT22;51745;50.872;4.732;2023-04-30T11:39:19;18.00;99.90
9640;DHT22;51745;50.872;4.732;2023-04-30T11:42:14;17.80;99.90
9640;DHT22;51745;50.872;4.732;2023-04-30T11:45:03;17.50;99.90
9640;DHT22;51745;50.872;4.732;2023-04-30T11:47:52;18.20;99.90
9640;DHT22;51745;50.872;4.732;2023-04-30T11:50:41;18.40;99.90
9640;DHT22;51745;50.872;4.732;2023-04-30T11:53:29;18.10;99.90
9640;DHT22;51745;50.872;4.732;2023-04-30T11:56:17;19.50;99.90
9640;DHT22;51745;50.872;4.732;2023-04-30T11:59:09;18.40;99.90
9640;DHT22;51745;50.872;4.732;2023-04-30T12:01:57;18.30;99.90
9640;DHT22;51745;50.872;4.732;2023-04-30T12:04:46;18.30;99.90
9640;DHT22;51745;50.872;4.732;2023-04-30T12:07:34;18.00;99.90
9640;DHT22;51745;50.872;4.732;2023-04-30T12:10:23;18.00;99.90
9640;DHT22;51745;50.872;4.732;2023-04-30T12:13:13;18.10;99.90
9640;DHT22;51745;50.872;4.732;2023-04-30T12:16:03;18.60;99.90
9640;DHT22;51745;50.872;4.732;2023-04-30T12:18:52;18.80;99.90
9640;DHT22;51745;50.872;4.732;2023-04-30T12:21:41;19.20;99.90
9640;DHT22;51745;50.872;4.732;2023-04-30T12:24:30;19.00;99.90
9640;DHT22;51745;50.872;4.732;2023-04-30T12:27:18;18.70;99.90
9640;DHT22;51745;50.872;4.732;2023-04-30T12:30:07;18.60;99.90
9640;DHT22;51745;50.872;4.732;2023-04-30T12:32:57;18.80;99.90
9640;DHT22;51745;50.872;4.732;2023-04-30T12:35:47;18.70;99.90
9640;DHT22;51745;50.872;4.732;2023-04-30T12:38:35;20.00;99.90
9640;DHT22;51745;50.872;4.732;2023-04-30T12:41:27;19.40;99.90
9640;DHT22;51745;50.872;4.732;2023-04-30T12:44:16;19.10;99.90
9640;DHT22;51745;50.872;4.732;2023-04-30T12:47:06;19.00;99.90
9640;DHT22;51745;50.872;4.732;2023-04-30T12:49:56;19.60;99.90
9640;DHT22;51745;50.872;4.732;2023-04-30T12:52:45;20.10;99.90
9640;DHT22;51745;50.872;4.732;2023-04-30T12:55:33;20.40;99.90
9640;DHT22;51745;50.872;4.732;2023-04-30T12:58:23;21.30;99.90
9640;DHT22;51745;50.872;4.732;2023-04-30T13:01:22;20.60;99.10
9640;DHT22;51745;50.872;4.732;2023-04-30T13:04:10;20.20;99.00
9640;DHT22;51745;50.872;4.732;2023-04-30T13:07:01;19.70;99.30
9640;DHT22;51745;50.872;4.732;2023-04-30T13:09:50;19.40;99.90
9640;DHT22;51745;50.872;4.732;2023-04-30T13:12:39;19.90;99.90
9640;DHT22;51745;50.872;4.732;2023-04-30T13:15:26;21.90;99.90
9640;DHT22;51745;50.872;4.732;2023-04-30T13:18:17;20.40;99.00
9640;DHT22;51745;50.872;4.732;2023-04-30T13:21:05;20.40;99.90
9640;DHT22;51745;50.872;4.732;2023-04-30T13:23:54;19.60;99.40
9640;DHT22;51745;50.872;4.732;2023-04-30T13:26:45;19.60;99.30
9640;DHT22;51745;50.872;4.732;2023-04-30T13:29:33;19.30;99.90
9640;DHT22;51745;50.872;4.732;2023-04-30T13:32:21;19.60;99.90
9640;DHT22;51745;50.872;4.732;2023-04-30T13:35:10;19.70;99.10
9640;DHT22;51745;50.872;4.732;2023-04-30T13:38:00;19.70;99.30
9640;DHT22;51745;50.872;4.732;2023-04-30T13:40:52;19.40;99.90
9640;DHT22;51745;50.872;4.732;2023-04-30T13:43:40;19.50;99.60
9640;DHT22;51745;50.872;4.732;2023-04-30T13:46:29;19.20;99.30
9640;DHT22;51745;50.872;4.732;2023-04-30T13:49:18;18.90;99.70
9640;DHT22;51745;50.872;4.732;2023-04-30T13:52:05;18.90;99.50
9640;DHT22;51745;50.872;4.732;2023-04-30T13:54:55;19.00;99.50
9640;DHT22;51745;50.872;4.732;2023-04-30T13:57:45;18.60;99.20
9640;DHT22;51745;50.872;4.732;2023-04-30T14:00:32;19.30;99.90
9640;DHT22;51745;50.872;4.732;2023-04-30T14:03:21;19.30;99.40
9640;DHT22;51745;50.872;4.732;2023-04-30T14:06:10;19.70;98.60
9640;DHT22;51745;50.872;4.732;2023-04-30T14:08:58;20.20;98.40
9640;DHT22;51745;50.872;4.732;2023-04-30T14:11:45;21.90;98.70
9640;DHT22;51745;50.872;4.732;2023-04-30T14:14:36;21.00;96.70
9640;DHT22;51745;50.872;4.732;2023-04-30T14:17:25;20.60;97.40
9640;DHT22;51745;50.872;4.732;2023-04-30T14:20:15;20.10;98.00
9640;DHT22;51745;50.872;4.732;2023-04-30T14:23:03;19.80;98.00
9640;DHT22;51745;50.872;4.732;2023-04-30T14:25:51;20.00;97.60
9640;DHT22;51745;50.872;4.732;2023-04-30T14:28:39;19.60;97.50
9640;DHT22;51745;50.872;4.732;2023-04-30T14:31:29;19.20;97.10
9640;DHT22;51745;50.872;4.732;2023-04-30T14:34:17;19.20;97.40
9640;DHT22;51745;50.872;4.732;2023-04-30T14:37:09;19.30;97.30
9640;DHT22;51745;50.872;4.732;2023-04-30T14:39:57;19.20;96.20
9640;DHT22;51745;50.872;4.732;2023-04-30T14:42:46;19.60;97.20
9640;DHT22;51745;50.872;4.732;2023-04-30T14:45:36;19.70;96.50
9640;DHT22;51745;50.872;4.732;2023-04-30T14:48:27;20.20;96.90
9640;DHT22;51745;50.872;4.732;2023-04-30T14:51:18;19.50;95.00
9640;DHT22;51745;50.872;4.732;2023-04-30T14:54:06;19.30;95.90
9640;DHT22;51745;50.872;4.732;2023-04-30T14:56:54;19.70;95.30
9640;DHT22;51745;50.872;4.732;2023-04-30T14:59:42;19.80;95.50
9640;DHT22;51745;50.872;4.732;2023-04-30T15:02:30;19.90;97.50
9640;DHT22;51745;50.872;4.732;2023-04-30T15:05:20;19.70;95.20
9640;DHT22;51745;50.872;4.732;2023-04-30T15:08:08;20.20;95.80
9640;DHT22;51745;50.872;4.732;2023-04-30T15:10:57;20.20;95.50
9640;DHT22;51745;50.872;4.732;2023-04-30T15:13:47;20.60;96.20
9640;DHT22;51745;50.872;4.732;2023-04-30T15:16:34;20.10;94.60
9640;DHT22;51745;50.872;4.732;2023-04-30T15:19:23;20.40;94.80
9640;DHT22;51745;50.872;4.732;2023-04-30T15:22:13;20.30;94.70
9640;DHT22;51745;50.872;4.732;2023-04-30T15:25:02;20.00;94.40
9640;DHT22;51745;50.872;4.732;2023-04-30T15:27:51;19.80;94.40
9640;DHT22;51745;50.872;4.732;2023-04-30T15:30:38;19.60;95.00
9640;DHT22;51745;50.872;4.732;2023-04-30T15:33:27;20.70;95.70
9640;DHT22;51745;50.872;4.732;2023-04-30T15:36:16;20.20;95.90
9640;DHT22;51745;50.872;4.732;2023-04-30T15:39:05;20.20;95.00
9640;DHT22;51745;50.872;4.732;2023-04-30T15:41:53;20.10;96.60
9640;DHT22;51745;50.872;4.732;2023-04-30T15:44:41;19.30;94.30
9640;DHT22;51745;50.872;4.732;2023-04-30T15:47:29;20.20;95.20
9640;DHT22;51745;50.872;4.732;2023-04-30T15:50:17;19.80;94.10
9640;DHT22;51745;50.872;4.732;2023-04-30T15:53:05;19.70;95.30
9640;DHT22;51745;50.872;4.732;2023-04-30T15:55:54;19.80;95.10
9640;DHT22;51745;50.872;4.732;2023-04-30T15:58:43;19.70;94.50
9640;DHT22;51745;50.872;4.732;2023-04-30T16:01:31;20.30;95.00
9640;DHT22;51745;50.872;4.732;2023-04-30T16:04:19;19.70;94.60
9640;DHT22;51745;50.872;4.732;2023-04-30T16:07:07;19.70;94.50
9640;DHT22;51745;50.872;4.732;2023-04-30T16:09:55;19.50;96.20
9640;DHT22;51745;50.872;4.732;2023-04-30T16:12:47;19.40;96.00
9640;DHT22;51745;50.872;4.732;2023-04-30T16:15:36;19.50;95.90
9640;DHT22;51745;50.872;4.732;2023-04-30T16:18:24;19.10;96.20
9640;DHT22;51745;50.872;4.732;2023-04-30T16:21:11;19.10;96.90
9640;DHT22;51745;50.872;4.732;2023-04-30T16:23:59;19.00;95.60
9640;DHT22;51745;50.872;4.732;2023-04-30T16:26:47;19.00;96.30
9640;DHT22;51745;50.872;4.732;2023-04-30T16:29:36;19.00;95.50
9640;DHT22;51745;50.872;4.732;2023-04-30T16:32:24;19.20;95.80
9640;DHT22;51745;50.872;4.732;2023-04-30T16:35:12;19.00;95.50
9640;DHT22;51745;50.872;4.732;2023-04-30T16:38:00;19.30;95.90
9640;DHT22;51745;50.872;4.732;2023-04-30T16:40:52;19.40;95.40
9640;DHT22;51745;50.872;4.732;2023-04-30T16:43:41;19.40;96.40
9640;DHT22;51745;50.872;4.732;2023-04-30T16:46:31;20.30;94.90
9640;DHT22;51745;50.872;4.732;2023-04-30T16:49:23;19.30;95.40
9640;DHT22;51745;50.872;4.732;2023-04-30T16:52:13;18.10;94.10
9640;DHT22;51745;50.872;4.732;2023-04-30T16:55:01;19.10;95.30
9640;DHT22;51745;50.872;4.732;2023-04-30T16:57:52;19.00;96.10
9640;DHT22;51745;50.872;4.732;2023-04-30T17:00:40;18.80;95.70
9640;DHT22;51745;50.872;4.732;2023-04-30T17:03:34;18.60;96.90
9640;DHT22;51745;50.872;4.732;2023-04-30T17:06:22;18.70;98.10
9640;DHT22;51745;50.872;4.732;2023-04-30T17:09:11;17.70;96.30
9640;DHT22;51745;50.872;4.732;2023-04-30T17:12:02;18.80;98.40
9640;DHT22;51745;50.872;4.732;2023-04-30T17:14:50;18.80;96.90
9640;DHT22;51745;50.872;4.732;2023-04-30T17:17:41;18.70;97.10
9640;DHT22;51745;50.872;4.732;2023-04-30T17:20:31;18.80;97.40
9640;DHT22;51745;50.872;4.732;2023-04-30T17:23:18;19.00;97.90
9640;DHT22;51745;50.872;4.732;2023-04-30T17:26:06;19.20;96.80
9640;DHT22;51745;50.872;4.732;2023-04-30T17:28:53;19.20;98.40
9640;DHT22;51745;50.872;4.732;2023-04-30T17:31:43;19.50;98.40
9640;DHT22;51745;50.872;4.732;2023-04-30T17:34:40;19.20;98.30
9640;DHT22;51745;50.872;4.732;2023-04-30T17:37:29;19.10;97.10
9640;DHT22;51745;50.872;4.732;2023-04-30T17:40:18;18.80;98.10
9640;DHT22;51745;50.872;4.732;2023-04-30T17:43:10;18.50;98.50
9640;DHT22;51745;50.872;4.732;2023-04-30T17:45:57;18.40;98.50
9640;DHT22;51745;50.872;4.732;2023-04-30T17:48:46;18.40;99.20
9640;DHT22;51745;50.872;4.732;2023-04-30T17:51:34;18.30;99.90
9640;DHT22;51745;50.872;4.732;2023-04-30T17:54:23;18.20;99.90
9640;DHT22;51745;50.872;4.732;2023-04-30T17:57:11;18.10;99.90
9640;DHT22;51745;50.872;4.732;2023-04-30T17:59:59;18.00;99.90
9640;DHT22;51745;50.872;4.732;2023-04-30T18:02:47;17.90;99.90
9640;DHT22;51745;50.872;4.732;2023-04-30T18:05:34;17.90;99.90
9640;DHT22;51745;50.872;4.732;2023-04-30T18:08:23;17.70;99.90
9640;DHT22;51745;50.872;4.732;2023-04-30T18:11:12;17.50;99.90
9640;DHT22;51745;50.872;4.732;2023-04-30T18:13:59;17.30;99.90
9640;DHT22;51745;50.872;4.732;2023-04-30T18:16:47;17.10;99.90
9640;DHT22;51745;50.872;4.732;2023-04-30T18:19:36;16.80;99.90
9640;DHT22;51745;50.872;4.732;2023-04-30T18:22:29;16.70;99.90